createdAt,value
2019-02-20T00:01:02.516Z,2.27
2019-02-20T00:03:31.984Z,2.22
2019-02-20T00:06:01.739Z,2.25
2019-02-20T00:08:32.795Z,2.12
2019-02-20T00:11:02.345Z,2.00
2019-02-20T00:13:32.159Z,2.03
2019-02-20T00:16:01.634Z,1.84
2019-02-20T00:18:33.478Z,1.86
2019-02-20T00:21:05.079Z,1.68
2019-02-20T00:23:39.352Z,1.73
2019-02-20T00:26:09.325Z,1.68
2019-02-20T00:28:39.055Z,1.73
2019-02-20T00:31:09.260Z,1.76
2019-02-20T00:33:39.254Z,1.76
2019-02-20T00:36:08.469Z,1.72
2019-02-20T00:38:40.469Z,1.82
2019-02-20T00:41:10.809Z,1.80
2019-02-20T00:43:43.216Z,1.78
2019-02-20T00:46:33.903Z,1.77
2019-02-20T00:49:09.221Z,1.93
2019-02-20T00:52:07.384Z,2.05
2019-02-20T00:54:36.892Z,2.03
2019-02-20T00:57:06.899Z,2.04
2019-02-20T00:59:38.878Z,2.18
2019-02-20T01:02:09.334Z,1.87
2019-02-20T01:04:38.530Z,1.73
2019-02-20T01:07:08.760Z,1.69
2019-02-20T01:09:38.703Z,1.76
2019-02-20T01:12:12.040Z,1.87
2019-02-20T01:14:44.556Z,2.01
2019-02-20T01:17:16.605Z,2.03
2019-02-20T01:19:46.356Z,1.88
2019-02-20T01:22:15.544Z,1.75
2019-02-20T01:24:47.594Z,1.74
2019-02-20T01:27:18.586Z,1.67
2019-02-20T01:29:49.075Z,1.71
2019-02-20T01:32:23.621Z,1.78
2019-02-20T01:34:54.203Z,1.74
2019-02-20T01:37:28.369Z,1.71
2019-02-20T01:39:58.088Z,1.67
2019-02-20T01:42:27.846Z,1.53
2019-02-20T01:44:57.437Z,1.52
2019-02-20T01:47:27.402Z,1.54
2019-02-20T01:49:58.830Z,1.40
2019-02-20T01:52:28.350Z,1.43
2019-02-20T01:54:58.057Z,1.66
2019-02-20T01:57:30.301Z,1.77
2019-02-20T01:59:59.791Z,1.74
2019-02-20T02:02:29.919Z,1.67
2019-02-20T02:05:01.094Z,1.62
2019-02-20T02:07:30.795Z,1.53
2019-02-20T02:10:01.057Z,1.47
2019-02-20T02:12:33.090Z,1.45
2019-02-20T02:15:04.785Z,1.44
2019-02-20T02:17:34.749Z,1.25
2019-02-20T02:20:05.625Z,1.27
2019-02-20T02:22:35.085Z,1.29
2019-02-20T02:25:05.304Z,1.42
2019-02-20T02:27:34.755Z,1.44
2019-02-20T02:30:09.408Z,1.38
2019-02-20T02:32:41.134Z,1.33
2019-02-20T02:35:11.101Z,1.27
2019-02-20T02:37:41.676Z,1.20
2019-02-20T02:40:11.098Z,1.15
2019-02-20T02:42:40.559Z,1.07
2019-02-20T02:45:12.041Z,0.95
2019-02-20T02:47:41.255Z,1.22
2019-02-20T02:50:10.782Z,1.22
2019-02-20T02:52:42.941Z,1.10
2019-02-20T02:55:14.431Z,1.17
2019-02-20T02:57:43.684Z,1.02
2019-02-20T03:00:13.236Z,1.18
2019-02-20T03:02:42.433Z,1.25
2019-02-20T03:05:11.609Z,1.20
2019-02-20T03:07:41.301Z,1.30
2019-02-20T03:10:12.562Z,1.24
2019-02-20T03:12:44.171Z,1.35
2019-02-20T03:15:13.887Z,1.35
2019-02-20T03:17:43.328Z,1.37
2019-02-20T03:20:16.818Z,1.49
2019-02-20T03:22:49.075Z,1.40
2019-02-20T03:25:21.185Z,1.44
2019-02-20T03:27:55.728Z,1.38
2019-02-20T03:30:25.683Z,1.41
2019-02-20T03:32:54.886Z,1.31
2019-02-20T03:35:26.617Z,1.12
2019-02-20T03:37:57.250Z,1.06
2019-02-20T03:40:28.275Z,1.02
2019-02-20T03:43:01.683Z,1.02
2019-02-20T03:45:31.917Z,1.08
2019-02-20T03:48:06.116Z,1.01
2019-02-20T03:50:35.583Z,1.02
2019-02-20T03:53:04.795Z,0.83
2019-02-20T03:55:34.504Z,0.90
2019-02-20T03:58:07.887Z,0.97
2019-02-20T04:00:38.557Z,1.19
2019-02-20T04:03:09.605Z,1.17
2019-02-20T04:05:41.128Z,1.23
2019-02-20T04:08:10.587Z,1.26
2019-02-20T04:10:40.047Z,1.24
2019-02-20T04:13:10.321Z,1.22
2019-02-20T04:15:42.021Z,1.39
2019-02-20T04:18:11.738Z,1.45
2019-02-20T04:20:41.478Z,1.54
2019-02-20T04:23:10.678Z,1.57
2019-02-20T04:25:46.820Z,1.57
2019-02-20T04:28:16.284Z,1.67
2019-02-20T04:30:46.908Z,1.58
2019-02-20T04:33:18.149Z,1.65
2019-02-20T04:35:47.337Z,1.61
2019-02-20T04:38:16.784Z,1.43
2019-02-20T04:40:48.065Z,1.40
2019-02-20T04:43:18.810Z,1.31
2019-02-20T04:45:51.361Z,1.45
2019-02-20T04:48:23.838Z,1.35
2019-02-20T04:50:54.123Z,1.48
2019-02-20T04:53:24.470Z,1.49
2019-02-20T04:55:55.972Z,1.65
2019-02-20T04:58:28.492Z,1.57
2019-02-20T05:00:58.242Z,1.50
2019-02-20T05:03:27.401Z,1.55
2019-02-20T05:05:57.407Z,1.51
2019-02-20T05:08:27.687Z,1.41
2019-02-20T05:10:58.894Z,1.39
2019-02-20T05:13:28.083Z,1.53
2019-02-20T05:15:57.815Z,1.24
2019-02-20T05:18:27.379Z,1.05
2019-02-20T05:20:58.866Z,1.01
2019-02-20T05:23:29.598Z,1.23
2019-02-20T05:25:59.354Z,1.24
2019-02-20T05:28:30.087Z,1.28
2019-02-20T05:31:00.294Z,1.27
2019-02-20T05:33:29.758Z,1.22
2019-02-20T05:36:00.494Z,1.37
2019-02-20T05:38:30.699Z,1.52
2019-02-20T05:41:01.104Z,1.64
2019-02-20T05:43:30.292Z,1.68
2019-02-20T05:46:00.545Z,1.64
2019-02-20T05:48:32.626Z,1.69
2019-02-20T05:51:02.356Z,1.77
2019-02-20T05:53:34.410Z,1.70
2019-02-20T05:56:08.442Z,1.68
2019-02-20T05:58:39.374Z,1.77
2019-02-20T06:01:10.315Z,1.84
2019-02-20T06:03:41.251Z,1.94
2019-02-20T06:06:11.060Z,1.87
2019-02-20T06:08:43.732Z,1.97
2019-02-20T06:11:15.569Z,1.93
2019-02-20T06:13:45.424Z,1.77
2019-02-20T06:16:14.896Z,1.62
2019-02-20T06:18:45.291Z,1.62
2019-02-20T06:21:16.474Z,1.86
2019-02-20T06:23:47.804Z,1.84
2019-02-20T06:26:20.308Z,1.94
2019-02-20T06:28:49.810Z,1.92
2019-02-20T06:31:18.980Z,1.94
2019-02-20T06:33:48.890Z,1.87
2019-02-20T06:36:18.605Z,1.93
2019-02-20T06:38:48.279Z,1.88
2019-02-20T06:41:19.230Z,1.91
2019-02-20T06:43:51.034Z,1.91
2019-02-20T06:46:20.918Z,1.75
2019-02-20T06:48:50.732Z,1.66
2019-02-20T06:51:21.998Z,1.73
2019-02-20T06:53:51.276Z,1.88
2019-02-20T06:56:26.965Z,1.87
2019-02-20T06:58:57.472Z,1.96
2019-02-20T07:01:26.675Z,2.03
2019-02-20T07:03:56.980Z,2.10
2019-02-20T07:06:54.600Z,2.04
2019-02-20T07:10:01.286Z,2.07
2019-02-20T07:12:55.910Z,2.04
2019-02-20T07:16:02.186Z,2.10
2019-02-20T07:18:50.136Z,2.13
2019-02-20T07:22:03.216Z,2.12
2019-02-20T07:25:05.035Z,2.24
2019-02-20T07:28:21.535Z,2.21
2019-02-20T07:30:52.722Z,2.32
2019-02-20T07:33:24.179Z,2.32
2019-02-20T07:35:57.639Z,2.33
2019-02-20T07:38:28.163Z,2.34
2019-02-20T07:41:00.975Z,2.41
2019-02-20T07:43:34.858Z,2.47
2019-02-20T07:46:19.917Z,2.36
2019-02-20T07:48:50.709Z,2.51
2019-02-20T07:51:41.955Z,2.45
2019-02-20T07:54:11.972Z,2.49
2019-02-20T07:56:42.012Z,2.63
2019-02-20T07:59:12.181Z,2.52
2019-02-20T08:01:45.324Z,2.56
2019-02-20T08:04:15.971Z,2.59
2019-02-20T08:06:49.755Z,2.66
2019-02-20T08:09:28.145Z,2.86
2019-02-20T08:11:57.609Z,2.93
2019-02-20T08:14:27.095Z,3.05
2019-02-20T08:16:57.133Z,3.12
2019-02-20T08:19:28.027Z,3.14
2019-02-20T08:21:57.247Z,3.28
2019-02-20T08:24:26.825Z,3.30
2019-02-20T08:26:56.771Z,3.32
2019-02-20T08:29:26.010Z,3.30
2019-02-20T08:31:56.846Z,3.33
2019-02-20T08:34:26.038Z,3.48
2019-02-20T08:36:55.198Z,3.54
2019-02-20T08:39:24.395Z,3.56
2019-02-20T08:41:53.568Z,3.62
2019-02-20T08:44:24.113Z,3.63
2019-02-20T08:46:54.867Z,3.57
2019-02-20T08:49:24.369Z,3.67
2019-02-20T08:51:54.987Z,3.61
2019-02-20T08:54:25.011Z,3.51
2019-02-20T08:56:58.090Z,3.54
2019-02-20T08:59:28.040Z,3.43
2019-02-20T09:01:57.407Z,3.56
2019-02-20T09:04:27.202Z,3.63
2019-02-20T09:06:58.016Z,3.71
2019-02-20T09:09:27.229Z,3.62
2019-02-20T09:12:17.462Z,3.85
2019-02-20T09:14:46.913Z,3.87
2019-02-20T09:17:16.573Z,3.99
2019-02-20T09:19:46.752Z,4.11
2019-02-20T09:22:16.017Z,4.14
2019-02-20T09:24:46.284Z,4.30
2019-02-20T09:27:15.748Z,4.57
2019-02-20T09:29:48.290Z,4.84
2019-02-20T09:32:21.131Z,4.96
2019-02-20T09:34:51.676Z,5.01
2019-02-20T09:37:20.833Z,5.14
2019-02-20T09:39:50.303Z,5.18
2019-02-20T09:42:21.505Z,5.21
2019-02-20T09:44:56.749Z,5.24
2019-02-20T09:47:26.859Z,5.35
2019-02-20T09:49:56.805Z,5.54
2019-02-20T09:52:26.168Z,5.53
2019-02-20T09:55:00.788Z,5.31
2019-02-20T09:57:30.042Z,5.31
2019-02-20T09:59:59.800Z,5.65
2019-02-20T10:02:29.568Z,5.69
2019-02-20T10:04:58.745Z,5.94
2019-02-20T10:07:35.766Z,6.18
2019-02-20T10:10:05.254Z,6.47
2019-02-20T10:12:34.752Z,6.39
2019-02-20T10:15:05.756Z,6.91
2019-02-20T10:17:36.274Z,6.98
2019-02-20T10:20:05.949Z,6.96
2019-02-20T10:22:35.176Z,6.62
2019-02-20T10:25:04.386Z,6.97
2019-02-20T10:27:33.894Z,7.00
2019-02-20T10:30:03.342Z,7.08
2019-02-20T10:32:32.566Z,7.21
2019-02-20T10:35:02.077Z,7.02
2019-02-20T10:37:31.334Z,7.13
2019-02-20T10:40:00.604Z,7.03
2019-02-20T10:42:51.246Z,7.12
2019-02-20T10:45:20.947Z,7.11
2019-02-20T10:47:51.777Z,7.11
2019-02-20T10:50:23.688Z,7.38
2019-02-20T10:52:55.692Z,7.40
2019-02-20T10:55:27.258Z,7.64
2019-02-20T10:57:56.451Z,7.55
2019-02-20T11:00:28.709Z,7.80
2019-02-20T11:02:58.355Z,8.11
2019-02-20T11:05:27.648Z,8.54
2019-02-20T11:07:58.650Z,8.78
2019-02-20T11:10:27.813Z,8.47
2019-02-20T11:12:57.287Z,8.73
2019-02-20T11:15:27.050Z,7.88
2019-02-20T11:17:56.510Z,7.74
2019-02-20T11:20:26.298Z,8.13
2019-02-20T11:22:57.580Z,8.04
2019-02-20T11:25:28.579Z,8.55
2019-02-20T11:28:00.496Z,8.77
2019-02-20T11:30:30.294Z,9.06
2019-02-20T11:33:00.852Z,8.98
2019-02-20T11:35:30.066Z,9.43
2019-02-20T11:37:59.601Z,9.25
2019-02-20T11:40:30.099Z,8.89
2019-02-20T11:42:59.263Z,9.17
2019-02-20T11:45:28.463Z,9.46
2019-02-20T11:47:59.805Z,9.40
2019-02-20T11:50:30.070Z,9.45
2019-02-20T11:53:00.316Z,9.71
2019-02-20T11:55:31.522Z,9.72
2019-02-20T11:58:01.493Z,9.91
2019-02-20T12:00:31.016Z,9.66
2019-02-20T12:03:00.247Z,9.99
2019-02-20T12:05:29.598Z,10.25
2019-02-20T12:07:58.841Z,10.48
2019-02-20T12:10:29.814Z,10.50
2019-02-20T12:13:00.045Z,10.19
2019-02-20T12:15:31.451Z,10.19
2019-02-20T12:18:02.143Z,10.37
2019-02-20T12:20:31.660Z,10.23
2019-02-20T12:23:01.654Z,10.08
2019-02-20T12:25:31.176Z,10.01
2019-02-20T12:28:00.388Z,10.23
2019-02-20T12:30:29.589Z,10.34
2019-02-20T12:32:59.644Z,10.16
2019-02-20T12:35:28.811Z,9.75
2019-02-20T12:37:58.014Z,10.26
2019-02-20T12:40:27.193Z,10.12
2019-02-20T12:42:56.394Z,10.37
2019-02-20T12:45:25.573Z,10.73
2019-02-20T12:47:55.107Z,11.06
2019-02-20T12:50:24.831Z,11.04
2019-02-20T12:52:54.069Z,11.34
2019-02-20T12:55:24.059Z,11.45
2019-02-20T12:57:54.790Z,11.52
2019-02-20T13:00:24.225Z,11.49
2019-02-20T13:02:56.396Z,11.23
2019-02-20T13:05:26.623Z,10.98
2019-02-20T13:07:56.705Z,11.14
2019-02-20T13:10:26.987Z,11.36
2019-02-20T13:12:56.672Z,11.52
2019-02-20T13:15:27.308Z,11.41
2019-02-20T13:18:01.554Z,11.54
2019-02-20T13:20:35.150Z,12.08
2019-02-20T13:23:06.081Z,11.35
2019-02-20T13:25:35.574Z,12.08
2019-02-20T13:28:06.194Z,12.29
2019-02-20T13:30:40.935Z,12.19
2019-02-20T13:33:11.139Z,12.22
2019-02-20T13:35:41.449Z,12.58
2019-02-20T13:38:10.884Z,12.68
2019-02-20T13:40:40.451Z,11.43
2019-02-20T13:43:10.410Z,11.80
2019-02-20T13:45:39.873Z,12.24
2019-02-20T13:48:11.391Z,12.29
2019-02-20T13:50:43.761Z,12.17
2019-02-20T13:53:15.639Z,12.15
2019-02-20T13:55:47.992Z,12.39
2019-02-20T13:58:19.724Z,12.52
2019-02-20T14:00:49.341Z,12.59
2019-02-20T14:03:18.787Z,12.14
2019-02-20T14:05:51.645Z,12.07
2019-02-20T14:08:21.962Z,11.74
2019-02-20T14:10:51.540Z,11.49
2019-02-20T14:13:21.490Z,11.85
2019-02-20T14:15:53.056Z,11.88
2019-02-20T14:18:23.290Z,12.20
2019-02-20T14:20:56.746Z,12.77
2019-02-20T14:23:29.704Z,12.86
2019-02-20T14:26:08.255Z,13.20
2019-02-20T14:28:43.466Z,12.70
2019-02-20T14:31:13.239Z,12.63
2019-02-20T14:33:45.150Z,12.20
2019-02-20T14:36:15.117Z,11.05
2019-02-20T14:38:46.920Z,11.29
2019-02-20T14:41:16.517Z,11.32
2019-02-20T14:43:46.323Z,11.71
2019-02-20T14:46:15.633Z,11.83
2019-02-20T14:48:44.850Z,11.84
2019-02-20T14:51:14.929Z,11.75
2019-02-20T14:53:44.416Z,10.99
2019-02-20T14:56:13.611Z,10.84
2019-02-20T14:58:44.431Z,10.65
2019-02-20T15:01:13.797Z,10.50
2019-02-20T15:03:43.832Z,11.12
2019-02-20T15:06:13.831Z,10.87
2019-02-20T15:08:47.324Z,10.94
2019-02-20T15:11:20.431Z,11.30
2019-02-20T15:13:51.085Z,11.48
2019-02-20T15:16:20.806Z,11.60
2019-02-20T15:18:50.035Z,10.85
2019-02-20T15:21:21.022Z,10.64
2019-02-20T15:23:51.493Z,10.75
2019-02-20T15:26:24.715Z,10.75
2019-02-20T15:28:55.176Z,11.06
2019-02-20T15:31:33.516Z,11.25
2019-02-20T15:33:56.815Z,10.76
2019-02-20T15:36:26.710Z,10.97
2019-02-20T15:39:02.639Z,10.29
2019-02-20T15:41:31.836Z,10.32
2019-02-20T15:44:02.769Z,10.07
2019-02-20T15:46:32.918Z,10.14
2019-02-20T15:49:03.748Z,10.21
2019-02-20T15:51:33.204Z,10.04
2019-02-20T15:54:02.628Z,10.09
2019-02-20T15:56:31.806Z,10.44
2019-02-20T15:59:01.372Z,10.59
2019-02-20T16:01:31.577Z,10.70
2019-02-20T16:04:01.581Z,10.69
2019-02-20T16:06:32.053Z,10.53
2019-02-20T16:09:01.479Z,11.04
2019-02-20T16:11:32.700Z,10.99
2019-02-20T16:14:03.657Z,11.10
2019-02-20T16:16:32.859Z,11.20
2019-02-20T16:19:02.427Z,11.21
2019-02-20T16:21:31.762Z,11.16
2019-02-20T16:24:21.536Z,11.06
2019-02-20T16:26:52.050Z,11.01
2019-02-20T16:29:21.875Z,10.84
2019-02-20T16:31:52.122Z,10.57
2019-02-20T16:34:21.338Z,10.66
2019-02-20T16:37:00.897Z,10.71
2019-02-20T16:39:30.277Z,10.66
2019-02-20T16:42:00.119Z,10.43
2019-02-20T16:44:29.621Z,10.53
2019-02-20T16:46:59.275Z,10.45
2019-02-20T16:49:29.145Z,10.40
2019-02-20T16:52:01.475Z,10.35
2019-02-20T16:54:31.527Z,10.37
2019-02-20T16:57:03.232Z,10.43
2019-02-20T16:59:32.615Z,10.37
2019-02-20T17:02:06.612Z,10.34
2019-02-20T17:04:36.876Z,10.33
2019-02-20T17:07:08.329Z,10.29
2019-02-20T17:09:39.394Z,10.31
2019-02-20T17:12:09.802Z,10.26
2019-02-20T17:14:39.351Z,10.19
2019-02-20T17:17:08.893Z,10.19
2019-02-20T17:19:38.456Z,10.08
2019-02-20T17:22:07.626Z,10.01
2019-02-20T17:24:37.095Z,9.95
2019-02-20T17:27:09.381Z,9.85
2019-02-20T17:29:38.849Z,9.80
2019-02-20T17:32:08.055Z,9.50
2019-02-20T17:34:37.232Z,9.40
2019-02-20T17:37:06.445Z,9.28
2019-02-20T17:39:36.087Z,9.18
2019-02-20T17:42:06.431Z,9.13
2019-02-20T17:44:36.093Z,9.10
2019-02-20T17:47:05.299Z,8.84
2019-02-20T17:49:36.554Z,8.87
2019-02-20T17:52:06.100Z,8.75
2019-02-20T17:54:35.300Z,8.62
2019-02-20T17:57:04.457Z,8.61
2019-02-20T17:59:36.824Z,8.57
2019-02-20T18:02:06.108Z,8.44
2019-02-20T18:04:41.159Z,8.39
2019-02-20T18:07:11.001Z,8.37
2019-02-20T18:09:40.806Z,8.41
2019-02-20T18:12:10.273Z,8.35
2019-02-20T18:14:40.083Z,8.26
2019-02-20T18:17:09.538Z,8.02
2019-02-20T18:19:38.834Z,8.09
2019-02-20T18:22:08.042Z,8.14
2019-02-20T18:24:38.651Z,8.02
2019-02-20T18:27:07.841Z,8.10
2019-02-20T18:29:37.045Z,8.01
2019-02-20T18:32:06.292Z,7.94
2019-02-20T18:34:35.944Z,7.99
2019-02-20T18:37:05.126Z,7.92
2019-02-20T18:39:34.326Z,7.88
2019-02-20T18:42:09.051Z,7.90
2019-02-20T18:44:38.613Z,7.80
2019-02-20T18:47:10.901Z,7.73
2019-02-20T18:49:40.165Z,7.61
2019-02-20T18:52:11.016Z,7.57
2019-02-20T18:54:42.223Z,7.50
2019-02-20T18:57:13.502Z,7.42
2019-02-20T19:00:05.682Z,7.33
2019-02-20T19:02:34.968Z,7.28
2019-02-20T19:05:04.326Z,7.13
2019-02-20T19:07:34.215Z,7.18
2019-02-20T19:10:03.514Z,7.18
2019-02-20T19:13:08.143Z,7.08
2019-02-20T19:16:03.167Z,7.07
2019-02-20T19:19:02.500Z,7.02
2019-02-20T19:21:40.775Z,6.96
2019-02-20T19:24:53.272Z,6.89
2019-02-20T19:28:12.358Z,6.84
2019-02-20T19:31:19.663Z,6.81
2019-02-20T19:34:14.218Z,6.82
2019-02-20T19:37:03.397Z,6.82
2019-02-20T19:40:20.803Z,6.82
2019-02-20T19:43:31.881Z,6.79
2019-02-20T19:46:36.296Z,6.71
2019-02-20T19:49:43.910Z,6.58
2019-02-20T19:52:56.580Z,6.62
2019-02-20T19:56:09.920Z,6.52
2019-02-20T19:58:57.788Z,6.45
2019-02-20T20:02:05.139Z,6.47
2019-02-20T20:05:16.457Z,6.51
2019-02-20T20:08:30.444Z,6.39
2019-02-20T20:11:33.529Z,6.38
2019-02-20T20:14:47.549Z,6.34
2019-02-20T20:17:46.538Z,6.17
2019-02-20T20:20:46.600Z,6.05
2019-02-20T20:23:58.481Z,5.99
2019-02-20T20:27:22.156Z,5.89
2019-02-20T20:30:35.000Z,5.80
2019-02-20T20:33:47.481Z,5.92
2019-02-20T20:36:39.282Z,5.91
2019-02-20T20:39:31.223Z,5.83
2019-02-20T20:42:51.793Z,5.72
2019-02-20T20:46:01.541Z,5.71
2019-02-20T20:49:09.671Z,5.61
2019-02-20T20:52:25.578Z,5.56
2019-02-20T20:55:44.869Z,5.45
2019-02-20T20:58:45.698Z,5.40
2019-02-20T21:01:46.530Z,5.35
2019-02-20T21:04:50.491Z,5.37
2019-02-20T21:08:01.226Z,5.45
2019-02-20T21:11:07.412Z,5.52
2019-02-20T21:14:07.008Z,5.43
2019-02-20T21:17:10.691Z,5.44
2019-02-20T21:20:07.059Z,5.41
2019-02-20T21:23:33.277Z,5.36
2019-02-20T21:26:55.057Z,5.49
2019-02-20T21:29:58.331Z,5.42
2019-02-20T21:33:17.347Z,5.65
2019-02-20T21:36:02.531Z,5.56
2019-02-20T21:39:19.383Z,5.50
2019-02-20T21:42:25.133Z,5.47
2019-02-20T21:45:35.102Z,5.35
2019-02-20T21:48:39.596Z,5.31
2019-02-20T21:51:51.155Z,5.34
2019-02-20T21:54:54.491Z,5.33
2019-02-20T21:58:02.088Z,5.39
2019-02-20T22:00:43.824Z,5.42
2019-02-20T22:03:33.623Z,5.51
2019-02-20T22:06:37.195Z,5.49
2019-02-20T22:09:34.443Z,5.49
2019-02-20T22:12:39.187Z,5.30
2019-02-20T22:16:04.666Z,5.22
2019-02-20T22:19:00.483Z,5.33
2019-02-20T22:21:54.521Z,5.26
2019-02-20T22:24:57.150Z,5.29
2019-02-20T22:28:21.495Z,5.26
2019-02-20T22:31:21.434Z,5.21
2019-02-20T22:34:56.864Z,5.16
2019-02-20T22:38:08.689Z,5.05
2019-02-20T22:41:10.251Z,5.00
2019-02-20T22:44:18.298Z,5.09
2019-02-20T22:47:20.447Z,5.14
2019-02-20T22:50:27.501Z,5.14
2019-02-20T22:53:03.435Z,5.17
2019-02-20T22:56:40.315Z,5.20
2019-02-20T22:59:38.450Z,5.13
2019-02-20T23:02:39.170Z,5.31
2019-02-20T23:05:54.288Z,5.38
2019-02-20T23:08:36.809Z,5.45
2019-02-20T23:11:56.475Z,5.43
2019-02-20T23:14:53.266Z,5.35
2019-02-20T23:17:23.696Z,5.24
2019-02-20T23:19:53.130Z,5.18
2019-02-20T23:22:25.420Z,5.23
2019-02-20T23:24:55.123Z,5.29
2019-02-20T23:27:26.318Z,5.16
2019-02-20T23:29:55.428Z,5.06
2019-02-20T23:32:25.837Z,5.05
2019-02-20T23:34:56.155Z,4.99
2019-02-20T23:37:26.336Z,4.94
2019-02-20T23:39:56.866Z,4.92
2019-02-20T23:42:26.679Z,5.06
2019-02-20T23:44:56.335Z,5.06
2019-02-20T23:47:26.308Z,4.95
2019-02-20T23:49:56.500Z,4.97
2019-02-20T23:52:26.425Z,4.87
2019-02-20T23:54:56.391Z,4.76
2019-02-20T23:57:26.622Z,4.68
